Terminal Aerodrome Forecast
Issued by NWS Cleveland, OH

Home | Current Version | Previous Version | Graphics & Text | Print | Product List | Glossary On
Versions: 1 2 3 4 5 6 7 8 9 10 11 12 13 14 15 16 17 18 19 20 21 22 23 24 25 26 27 28
704
FTUS41 KCLE 250350 AAA
TAFERI
TAF AMD
KERI 250350Z 2504/2524 21010KT P6SM VCSH BKN060 OVC080
     FM250700 31005KT P6SM VCSH BKN030 OVC060
     FM250900 VRB03KT P6SM SCT007 OVC012
     FM251100 04008KT P6SM OVC007
     FM252100 05009KT P6SM OVC025=

USA.gov is the U.S. government's official web portal to all federal, state and local government web resources and services.